createdAt,value
2018-07-30T00:00:47.409Z,21.51
2018-07-30T00:02:59.693Z,21.50
2018-07-30T00:05:12.324Z,21.46
2018-07-30T00:07:24.498Z,21.33
2018-07-30T00:09:36.709Z,21.25
2018-07-30T00:11:48.899Z,21.22
2018-07-30T00:14:01.107Z,21.20
2018-07-30T00:16:13.331Z,21.14
2018-07-30T00:18:25.523Z,21.06
2018-07-30T00:20:37.761Z,20.95
2018-07-30T00:22:49.943Z,20.89
2018-07-30T00:25:02.172Z,20.86
2018-07-30T00:27:14.350Z,20.80
2018-07-30T00:29:26.563Z,20.73
2018-07-30T00:31:38.711Z,20.65
2018-07-30T00:33:50.924Z,20.65
2018-07-30T00:36:03.167Z,20.59
2018-07-30T00:38:15.351Z,20.54
2018-07-30T00:40:27.608Z,20.51
2018-07-30T00:42:39.814Z,20.50
2018-07-30T00:44:52.038Z,20.50
2018-07-30T00:47:04.271Z,20.53
2018-07-30T00:49:16.436Z,20.59
2018-07-30T00:51:28.943Z,20.64
2018-07-30T00:53:41.158Z,20.62
2018-07-30T00:55:53.464Z,20.65
2018-07-30T00:58:05.691Z,20.68
2018-07-30T01:00:17.974Z,20.69
2018-07-30T01:02:30.207Z,20.69
2018-07-30T01:04:42.412Z,20.62
2018-07-30T01:06:54.696Z,20.55
2018-07-30T01:09:08.263Z,20.51
2018-07-30T01:11:20.544Z,20.52
2018-07-30T01:13:32.770Z,20.52
2018-07-30T01:15:44.963Z,20.52
2018-07-30T01:17:57.275Z,20.46
2018-07-30T01:20:09.456Z,20.43
2018-07-30T01:22:21.673Z,20.39
2018-07-30T01:24:33.865Z,20.31
2018-07-30T01:26:46.091Z,20.26
2018-07-30T01:28:59.080Z,20.20
2018-07-30T01:31:11.258Z,20.20
2018-07-30T01:33:23.522Z,20.20
2018-07-30T01:35:35.724Z,20.17
2018-07-30T01:37:47.926Z,20.19
2018-07-30T01:40:00.138Z,20.23
2018-07-30T01:42:12.306Z,20.21
2018-07-30T01:44:24.514Z,20.17
2018-07-30T01:46:36.706Z,20.17
2018-07-30T01:48:48.947Z,20.18
2018-07-30T01:51:01.159Z,20.15
2018-07-30T01:53:13.500Z,20.15
2018-07-30T01:55:25.763Z,20.06
2018-07-30T01:57:37.947Z,20.03
2018-07-30T01:59:50.157Z,20.02
2018-07-30T02:02:02.356Z,20.01
2018-07-30T02:04:14.590Z,19.99
2018-07-30T02:06:26.807Z,19.94
2018-07-30T02:08:39.041Z,19.84
2018-07-30T02:10:51.318Z,19.74
2018-07-30T02:13:03.547Z,19.67
2018-07-30T02:15:16.480Z,19.61
2018-07-30T02:17:28.654Z,19.58
2018-07-30T02:19:40.826Z,19.59
2018-07-30T02:21:53.027Z,19.59
2018-07-30T02:24:05.315Z,19.60
2018-07-30T02:26:17.515Z,19.56
2018-07-30T02:28:29.818Z,19.59
2018-07-30T02:30:42.007Z,19.62
2018-07-30T02:32:54.204Z,19.63
2018-07-30T02:35:07.406Z,19.63
2018-07-30T02:37:19.674Z,19.59
2018-07-30T02:39:31.886Z,19.57
2018-07-30T02:41:44.097Z,19.56
2018-07-30T02:43:56.282Z,19.57
2018-07-30T02:46:08.439Z,19.58
2018-07-30T02:48:20.639Z,19.57
2018-07-30T02:50:32.865Z,19.48
2018-07-30T02:52:45.072Z,19.42
2018-07-30T02:54:57.336Z,19.37
2018-07-30T02:57:09.540Z,19.34
2018-07-30T02:59:21.783Z,19.24
2018-07-30T03:01:33.998Z,19.21
2018-07-30T03:03:46.202Z,19.20
2018-07-30T03:05:58.388Z,19.22
2018-07-30T03:08:10.694Z,19.21
2018-07-30T03:10:22.875Z,19.20
2018-07-30T03:12:35.147Z,19.17
2018-07-30T03:14:47.333Z,19.15
2018-07-30T03:16:59.542Z,19.15
2018-07-30T03:19:11.763Z,19.15
2018-07-30T03:21:23.931Z,19.11
2018-07-30T03:23:36.127Z,19.09
2018-07-30T03:25:48.681Z,19.11
2018-07-30T03:28:00.919Z,19.11
2018-07-30T03:30:13.104Z,19.08
2018-07-30T03:32:25.329Z,19.03
2018-07-30T03:34:37.539Z,18.98
2018-07-30T03:36:49.763Z,18.92
2018-07-30T03:39:02.017Z,18.88
2018-07-30T03:41:14.226Z,18.84
2018-07-30T03:43:26.446Z,18.79
2018-07-30T03:45:38.627Z,18.79
2018-07-30T03:47:50.831Z,18.77
2018-07-30T03:50:03.180Z,18.74
2018-07-30T03:52:15.377Z,18.72
2018-07-30T03:54:27.577Z,18.67
2018-07-30T03:56:39.757Z,18.64
2018-07-30T03:58:52.522Z,18.64
2018-07-30T04:01:04.729Z,18.69
2018-07-30T04:03:16.966Z,18.64
2018-07-30T04:05:29.182Z,18.62
2018-07-30T04:07:41.403Z,18.62
2018-07-30T04:09:53.610Z,18.59
2018-07-30T04:12:05.959Z,18.63
2018-07-30T04:14:18.187Z,18.64
2018-07-30T04:16:34.366Z,18.68
2018-07-30T04:18:46.539Z,18.66
2018-07-30T04:20:58.767Z,18.61
2018-07-30T04:23:10.961Z,18.59
2018-07-30T04:25:23.190Z,18.57
2018-07-30T04:27:35.420Z,18.60
2018-07-30T04:29:47.651Z,18.65
2018-07-30T04:31:59.921Z,18.69
2018-07-30T04:34:12.144Z,18.81
2018-07-30T04:36:24.359Z,18.93
2018-07-30T04:38:36.567Z,19.05
2018-07-30T04:40:48.777Z,19.14
2018-07-30T04:43:01.213Z,19.22
2018-07-30T04:45:13.473Z,19.33
2018-07-30T04:47:25.700Z,19.44
2018-07-30T04:49:37.879Z,19.53
2018-07-30T04:51:50.099Z,19.57
2018-07-30T04:54:02.359Z,19.63
2018-07-30T04:56:14.549Z,19.73
2018-07-30T04:58:26.731Z,19.80
2018-07-30T05:00:39.023Z,19.88
2018-07-30T05:02:51.223Z,19.98
2018-07-30T05:05:04.184Z,20.07
2018-07-30T05:07:16.415Z,20.16
2018-07-30T05:09:28.582Z,20.25
2018-07-30T05:11:40.796Z,20.33
2018-07-30T05:13:52.968Z,20.44
2018-07-30T05:16:05.235Z,20.53
2018-07-30T05:18:17.655Z,20.65
2018-07-30T05:20:29.865Z,20.77
2018-07-30T05:22:42.083Z,20.91
2018-07-30T05:24:54.324Z,21.03
2018-07-30T05:27:06.512Z,21.16
2018-07-30T05:29:18.699Z,21.25
2018-07-30T05:31:31.019Z,21.38
2018-07-30T05:33:43.207Z,21.44
2018-07-30T05:35:55.401Z,21.55
2018-07-30T05:38:07.652Z,21.67
2018-07-30T05:40:19.815Z,21.76
2018-07-30T05:42:32.263Z,21.88
2018-07-30T05:44:44.511Z,21.99
2018-07-30T05:46:56.725Z,22.08
2018-07-30T05:49:09.003Z,22.17
2018-07-30T05:51:21.250Z,22.21
2018-07-30T05:53:33.504Z,22.33
2018-07-30T05:55:45.678Z,22.48
2018-07-30T05:57:58.153Z,22.58
2018-07-30T06:00:10.517Z,22.69
2018-07-30T06:02:22.894Z,22.79
2018-07-30T06:04:35.246Z,22.92
2018-07-30T06:06:48.768Z,23.04
2018-07-30T06:09:01.291Z,23.17
2018-07-30T06:11:13.846Z,23.29
2018-07-30T06:13:26.289Z,23.39
2018-07-30T06:15:38.499Z,23.49
2018-07-30T06:17:50.727Z,23.56
2018-07-30T06:20:03.664Z,23.68
2018-07-30T06:22:15.844Z,23.80
2018-07-30T06:24:28.039Z,23.93
2018-07-30T06:26:40.291Z,24.01
2018-07-30T06:28:52.511Z,24.17
2018-07-30T06:31:04.743Z,24.31
2018-07-30T06:33:16.970Z,24.38
2018-07-30T06:35:29.170Z,24.42
2018-07-30T06:37:41.355Z,24.50
2018-07-30T06:39:53.630Z,24.61
2018-07-30T06:42:05.844Z,24.73
2018-07-30T06:44:18.049Z,24.85
2018-07-30T06:46:30.294Z,25.02
2018-07-30T06:48:42.526Z,25.17
2018-07-30T06:50:54.767Z,25.33
2018-07-30T06:53:06.982Z,25.50
2018-07-30T06:55:19.296Z,25.65
2018-07-30T06:57:31.516Z,25.69
2018-07-30T06:59:43.712Z,25.82
2018-07-30T07:01:56.030Z,26.00
2018-07-30T07:04:08.462Z,26.21
2018-07-30T07:06:20.727Z,26.39
2018-07-30T07:08:32.927Z,26.60
2018-07-30T07:10:45.181Z,26.84
2018-07-30T07:12:57.389Z,27.06
2018-07-30T07:15:11.848Z,27.27
2018-07-30T07:17:24.060Z,27.42
2018-07-30T07:19:36.419Z,27.66
2018-07-30T07:21:48.674Z,27.83
2018-07-30T07:24:01.247Z,27.93
2018-07-30T07:26:13.510Z,28.03
2018-07-30T07:28:25.725Z,28.20
2018-07-30T07:30:37.980Z,28.40
2018-07-30T07:32:50.446Z,28.60
2018-07-30T07:35:02.851Z,28.74
2018-07-30T07:37:15.048Z,28.94
2018-07-30T07:39:27.514Z,29.20
2018-07-30T07:41:39.957Z,29.37
2018-07-30T07:43:52.271Z,29.56
2018-07-30T07:46:04.450Z,29.69
2018-07-30T07:48:16.755Z,29.79
2018-07-30T07:50:28.969Z,29.76
2018-07-30T07:52:41.187Z,29.71
2018-07-30T07:54:53.428Z,29.71
2018-07-30T07:57:05.694Z,29.76
2018-07-30T07:59:18.638Z,29.90
2018-07-30T08:01:31.046Z,30.03
2018-07-30T08:03:43.650Z,30.14
2018-07-30T08:05:55.909Z,30.27
2018-07-30T08:08:08.171Z,30.38
2018-07-30T08:10:20.447Z,30.46
2018-07-30T08:12:33.083Z,30.59
2018-07-30T08:14:45.569Z,30.61
2018-07-30T08:16:58.384Z,30.65
2018-07-30T08:19:10.961Z,30.80
2018-07-30T08:21:23.260Z,30.95
2018-07-30T08:23:35.503Z,31.03
2018-07-30T08:25:47.769Z,31.12
2018-07-30T08:27:59.991Z,31.19
2018-07-30T08:30:12.308Z,31.34
2018-07-30T08:32:24.522Z,31.45
2018-07-30T08:34:36.743Z,31.52
2018-07-30T08:36:49.092Z,31.52
2018-07-30T08:39:01.275Z,31.56
2018-07-30T08:41:13.591Z,31.54
2018-07-30T08:43:25.859Z,31.64
2018-07-30T08:45:38.155Z,31.75
2018-07-30T08:47:50.498Z,31.83
2018-07-30T08:50:03.135Z,31.96
2018-07-30T08:52:15.390Z,32.06
2018-07-30T08:54:27.643Z,32.06
2018-07-30T08:56:39.860Z,32.11
2018-07-30T08:58:52.412Z,32.19
2018-07-30T09:01:04.690Z,32.29
2018-07-30T09:03:16.938Z,32.28
2018-07-30T09:05:29.179Z,32.33
2018-07-30T09:07:41.407Z,32.44
2018-07-30T09:09:53.775Z,32.52
2018-07-30T09:12:06.051Z,32.56
2018-07-30T09:14:18.278Z,32.58
2018-07-30T09:16:30.508Z,32.59
2018-07-30T09:18:42.723Z,32.62
2018-07-30T09:20:54.979Z,32.58
2018-07-30T09:23:07.188Z,32.61
2018-07-30T09:25:19.366Z,32.69
2018-07-30T09:27:31.619Z,32.78
2018-07-30T09:29:43.817Z,32.89
2018-07-30T09:31:56.129Z,32.99
2018-07-30T09:34:08.640Z,33.02
2018-07-30T09:36:22.658Z,32.93
2018-07-30T09:38:35.034Z,32.98
2018-07-30T09:40:47.253Z,33.07
2018-07-30T09:42:59.483Z,33.14
2018-07-30T09:45:11.713Z,33.17
2018-07-30T09:47:23.922Z,33.15
2018-07-30T09:49:36.150Z,33.12
2018-07-30T09:51:48.415Z,33.25
2018-07-30T09:54:00.631Z,33.37
2018-07-30T09:56:12.895Z,33.45
2018-07-30T09:58:25.092Z,33.54
2018-07-30T10:00:42.994Z,33.59
2018-07-30T10:02:55.287Z,33.61
2018-07-30T10:05:07.577Z,33.64
2018-07-30T10:07:19.782Z,33.76
2018-07-30T10:09:32.039Z,33.85
2018-07-30T10:11:44.312Z,33.93
2018-07-30T10:13:56.522Z,33.98
2018-07-30T10:16:08.714Z,33.87
2018-07-30T10:18:21.059Z,33.80
2018-07-30T10:20:33.234Z,33.82
2018-07-30T10:22:45.491Z,33.85
2018-07-30T10:24:57.759Z,33.89
2018-07-30T10:27:09.951Z,33.99
2018-07-30T10:29:22.209Z,34.07
2018-07-30T10:31:34.434Z,34.03
2018-07-30T10:33:46.665Z,34.13
2018-07-30T10:35:58.963Z,34.21
2018-07-30T10:38:11.206Z,34.27
2018-07-30T10:40:23.431Z,34.29
2018-07-30T10:42:35.666Z,34.31
2018-07-30T10:44:47.899Z,34.38
2018-07-30T10:47:00.131Z,34.38
2018-07-30T10:49:12.351Z,34.44
2018-07-30T10:51:24.559Z,34.57
2018-07-30T10:53:36.769Z,34.49
2018-07-30T10:55:48.982Z,34.47
2018-07-30T10:58:01.179Z,34.50
2018-07-30T11:00:13.457Z,34.46
2018-07-30T11:02:25.660Z,34.54
2018-07-30T11:04:39.650Z,34.52
2018-07-30T11:06:51.845Z,34.57
2018-07-30T11:09:06.846Z,34.62
2018-07-30T11:11:19.122Z,34.72
2018-07-30T11:13:31.328Z,34.70
2018-07-30T11:15:43.564Z,34.75
2018-07-30T11:17:55.830Z,34.81
2018-07-30T11:20:08.028Z,34.65
2018-07-30T11:22:20.255Z,34.43
2018-07-30T11:24:33.082Z,34.37
2018-07-30T11:26:45.358Z,34.34
2018-07-30T11:28:57.579Z,34.45
2018-07-30T11:31:09.802Z,34.48
2018-07-30T11:33:22.054Z,34.60
2018-07-30T11:35:34.642Z,34.61
2018-07-30T11:37:46.893Z,34.67
2018-07-30T11:39:59.112Z,34.62
2018-07-30T11:42:11.332Z,34.60
2018-07-30T11:44:23.588Z,34.50
2018-07-30T11:46:35.807Z,34.50
2018-07-30T11:48:48.084Z,34.52
2018-07-30T11:51:01.052Z,34.54
2018-07-30T11:53:13.316Z,34.57
2018-07-30T11:55:25.766Z,34.64
2018-07-30T11:57:37.994Z,34.58
2018-07-30T11:59:50.229Z,34.53
2018-07-30T12:02:02.526Z,34.58
2018-07-30T12:04:14.794Z,34.61
2018-07-30T12:06:27.053Z,34.65
2018-07-30T12:08:39.318Z,34.61
2018-07-30T12:10:51.863Z,34.56
2018-07-30T12:13:04.090Z,34.54
2018-07-30T12:15:16.341Z,34.52
2018-07-30T12:17:28.562Z,34.53
2018-07-30T12:19:40.887Z,34.49
2018-07-30T12:21:53.220Z,34.48
2018-07-30T12:24:05.459Z,34.45
2018-07-30T12:26:17.769Z,34.50
2018-07-30T12:28:29.995Z,34.46
2018-07-30T12:30:42.286Z,34.37
2018-07-30T12:32:54.455Z,34.39
2018-07-30T12:35:06.701Z,34.34
2018-07-30T12:37:18.922Z,34.37
2018-07-30T12:39:31.208Z,34.42
2018-07-30T12:41:43.412Z,34.41
2018-07-30T12:43:55.611Z,34.38
2018-07-30T12:46:07.903Z,34.33
2018-07-30T12:48:20.146Z,34.35
2018-07-30T12:50:32.502Z,34.35
2018-07-30T12:52:44.699Z,34.31
2018-07-30T12:54:56.924Z,34.27
2018-07-30T12:57:09.145Z,34.22
2018-07-30T12:59:21.338Z,34.20
2018-07-30T13:01:33.583Z,34.20
2018-07-30T13:03:45.876Z,34.28
2018-07-30T13:05:58.181Z,34.32
2018-07-30T13:08:10.467Z,34.27
2018-07-30T13:10:22.702Z,34.34
2018-07-30T13:12:34.914Z,34.34
2018-07-30T13:14:47.159Z,34.24
2018-07-30T13:16:59.396Z,34.15
2018-07-30T13:19:11.631Z,34.11
2018-07-30T13:21:23.871Z,34.07
2018-07-30T13:23:36.091Z,33.95
2018-07-30T13:25:48.287Z,33.96
2018-07-30T13:28:00.566Z,33.73
2018-07-30T13:30:12.811Z,33.77
2018-07-30T13:32:25.020Z,33.73
2018-07-30T13:34:37.231Z,33.79
2018-07-30T13:36:49.467Z,33.85
2018-07-30T13:39:01.700Z,33.84
2018-07-30T13:41:13.979Z,33.84
2018-07-30T13:43:26.224Z,33.84
2018-07-30T13:45:38.409Z,33.84
2018-07-30T13:47:50.636Z,33.85
2018-07-30T13:50:03.053Z,33.87
2018-07-30T13:52:15.282Z,33.85
2018-07-30T13:54:27.555Z,33.82
2018-07-30T13:56:39.737Z,33.83
2018-07-30T13:58:51.922Z,33.78
2018-07-30T14:01:04.319Z,33.73
2018-07-30T14:03:16.551Z,33.74
2018-07-30T14:05:28.791Z,33.66
2018-07-30T14:07:41.038Z,33.60
2018-07-30T14:09:53.330Z,33.54
2018-07-30T14:12:05.871Z,33.53
2018-07-30T14:14:18.076Z,33.56
2018-07-30T14:16:30.420Z,33.60
2018-07-30T14:18:42.638Z,33.57
2018-07-30T14:20:54.956Z,33.57
2018-07-30T14:23:07.271Z,33.57
2018-07-30T14:25:19.511Z,33.59
2018-07-30T14:27:31.782Z,33.61
2018-07-30T14:29:44.015Z,33.66
2018-07-30T14:31:56.240Z,33.75
2018-07-30T14:34:08.524Z,33.81
2018-07-30T14:36:20.777Z,33.80
2018-07-30T14:38:33.016Z,33.80
2018-07-30T14:40:45.300Z,33.81
2018-07-30T14:42:57.516Z,33.83
2018-07-30T14:45:09.717Z,33.82
2018-07-30T14:47:21.970Z,33.77
2018-07-30T14:49:34.204Z,33.76
2018-07-30T14:51:46.477Z,33.75
2018-07-30T14:53:58.694Z,33.74
2018-07-30T14:56:10.963Z,33.74
2018-07-30T14:58:23.322Z,33.72
2018-07-30T15:00:35.530Z,33.72
2018-07-30T15:02:47.769Z,33.70
2018-07-30T15:05:00.015Z,33.69
2018-07-30T15:07:12.331Z,33.69
2018-07-30T15:09:24.527Z,33.63
2018-07-30T15:11:37.247Z,33.59
2018-07-30T15:13:49.609Z,33.58
2018-07-30T15:16:01.817Z,33.58
2018-07-30T15:18:14.754Z,33.52
2018-07-30T15:20:27.015Z,33.56
2018-07-30T15:22:39.231Z,33.51
2018-07-30T15:24:51.553Z,33.51
2018-07-30T15:27:03.808Z,33.47
2018-07-30T15:29:16.024Z,33.48
2018-07-30T15:31:28.222Z,33.47
2018-07-30T15:33:40.480Z,33.41
2018-07-30T15:35:52.695Z,33.37
2018-07-30T15:38:04.919Z,33.39
2018-07-30T15:40:17.150Z,33.37
2018-07-30T15:42:29.400Z,33.28
2018-07-30T15:44:41.659Z,33.26
2018-07-30T15:46:53.942Z,33.29
2018-07-30T15:49:06.106Z,33.24
2018-07-30T15:51:18.336Z,33.19
2018-07-30T15:53:30.598Z,33.18
2018-07-30T15:55:42.820Z,33.17
2018-07-30T15:57:55.023Z,33.22
2018-07-30T16:00:07.953Z,33.11
2018-07-30T16:06:56.273Z,32.98
2018-07-30T16:09:08.466Z,33.03
2018-07-30T16:11:20.750Z,33.05
2018-07-30T16:13:32.996Z,33.03
2018-07-30T16:15:45.236Z,33.06
2018-07-30T16:17:57.510Z,33.08
2018-07-30T16:20:09.770Z,33.09
2018-07-30T16:22:21.958Z,33.13
2018-07-30T16:24:34.199Z,33.13
2018-07-30T16:26:46.427Z,33.13
2018-07-30T16:28:58.666Z,33.13
2018-07-30T16:31:10.851Z,33.11
2018-07-30T16:33:23.101Z,33.12
2018-07-30T16:35:35.310Z,33.13
2018-07-30T16:37:47.512Z,33.09
2018-07-30T16:39:59.759Z,33.04
2018-07-30T16:42:12.062Z,33.03
2018-07-30T16:44:24.368Z,33.03
2018-07-30T16:46:36.574Z,33.00
2018-07-30T16:48:48.883Z,33.04
2018-07-30T16:51:01.170Z,33.07
2018-07-30T16:55:31.362Z,33.03
2018-07-30T16:57:43.598Z,33.02
2018-07-30T16:59:55.847Z,32.99
2018-07-30T17:02:08.158Z,32.93
2018-07-30T17:04:20.429Z,32.85
2018-07-30T17:06:32.657Z,32.79
2018-07-30T17:08:44.920Z,32.77
2018-07-30T17:10:57.127Z,32.71
2018-07-30T17:13:09.371Z,32.74
2018-07-30T17:15:21.611Z,32.75
2018-07-30T17:17:33.821Z,32.76
2018-07-30T17:19:46.031Z,32.77
2018-07-30T17:21:58.269Z,32.73
2018-07-30T17:24:10.465Z,32.72
2018-07-30T17:26:22.750Z,32.59
2018-07-30T17:28:35.224Z,32.54
2018-07-30T17:30:47.688Z,32.52
2018-07-30T17:33:00.022Z,32.51
2018-07-30T17:35:12.304Z,32.48
2018-07-30T17:37:24.570Z,32.49
2018-07-30T17:39:37.155Z,32.50
2018-07-30T17:41:49.745Z,32.49
2018-07-30T17:44:02.352Z,32.49
2018-07-30T17:46:14.678Z,32.51
2018-07-30T17:48:27.181Z,32.54
2018-07-30T17:50:39.751Z,32.53
2018-07-30T17:52:52.323Z,32.51
2018-07-30T17:55:04.879Z,32.50
2018-07-30T17:57:17.446Z,32.50
2018-07-30T17:59:29.766Z,32.47
2018-07-30T18:01:42.112Z,32.44
2018-07-30T18:03:54.432Z,32.39
2018-07-30T18:06:06.699Z,32.37
2018-07-30T18:08:18.942Z,32.33
2018-07-30T18:10:31.204Z,32.29
2018-07-30T18:12:43.644Z,32.17
2018-07-30T18:14:55.890Z,32.02
2018-07-30T18:17:08.147Z,31.75
2018-07-30T18:19:20.447Z,31.53
2018-07-30T18:21:32.742Z,31.24
2018-07-30T18:23:44.961Z,31.03
2018-07-30T18:25:57.241Z,30.86
2018-07-30T18:28:09.546Z,30.67
2018-07-30T18:30:21.781Z,30.47
2018-07-30T18:32:34.039Z,30.33
2018-07-30T18:34:46.343Z,30.18
2018-07-30T18:36:58.593Z,30.05
2018-07-30T18:39:10.846Z,29.98
2018-07-30T18:41:23.050Z,29.81
2018-07-30T18:43:35.322Z,29.64
2018-07-30T18:45:47.539Z,29.59
2018-07-30T18:47:59.812Z,29.61
2018-07-30T18:50:12.030Z,29.58
2018-07-30T18:52:24.324Z,29.50
2018-07-30T18:54:36.678Z,29.47
2018-07-30T18:56:48.904Z,29.37
2018-07-30T18:59:01.166Z,29.25
2018-07-30T19:01:13.391Z,29.05
2018-07-30T19:03:25.682Z,28.86
2018-07-30T19:05:38.053Z,28.77
2018-07-30T19:07:50.402Z,28.75
2018-07-30T19:10:02.970Z,28.70
2018-07-30T19:12:15.171Z,28.61
2018-07-30T19:14:27.619Z,28.45
2018-07-30T19:16:39.942Z,28.33
2018-07-30T19:18:52.431Z,28.25
2018-07-30T19:21:04.974Z,28.11
2018-07-30T19:23:17.214Z,28.03
2018-07-30T19:25:29.436Z,27.90
2018-07-30T19:27:41.907Z,27.86
2018-07-30T19:29:54.469Z,27.75
2018-07-30T19:32:06.710Z,27.71
2018-07-30T19:34:18.945Z,27.60
2018-07-30T19:36:31.189Z,27.53
2018-07-30T19:38:43.734Z,27.45
2018-07-30T19:40:56.281Z,27.43
2018-07-30T19:43:08.567Z,27.31
2018-07-30T19:45:21.070Z,27.32
2018-07-30T19:47:33.551Z,27.25
2018-07-30T19:49:45.996Z,27.25
2018-07-30T19:51:58.251Z,27.13
2018-07-30T19:54:10.566Z,27.02
2018-07-30T19:56:22.842Z,26.89
2018-07-30T19:58:35.526Z,26.76
2018-07-30T20:00:47.820Z,26.76
2018-07-30T20:03:00.125Z,26.67
2018-07-30T20:05:12.630Z,26.60
2018-07-30T20:07:25.238Z,26.55
2018-07-30T20:09:37.750Z,26.53
2018-07-30T20:11:50.276Z,26.47
2018-07-30T20:14:02.564Z,26.42
2018-07-30T20:16:15.079Z,26.34
2018-07-30T20:18:27.351Z,26.27
2018-07-30T20:20:39.829Z,26.18
2018-07-30T20:22:52.372Z,26.10
2018-07-30T20:25:05.477Z,26.08
2018-07-30T20:27:17.770Z,26.12
2018-07-30T20:29:29.998Z,26.12
2018-07-30T20:31:42.471Z,26.11
2018-07-30T20:33:56.407Z,26.06
2018-07-30T20:36:08.637Z,25.96
2018-07-30T20:38:20.850Z,25.95
2018-07-30T20:40:33.059Z,25.82
2018-07-30T20:42:45.261Z,25.77
2018-07-30T20:44:57.563Z,25.77
2018-07-30T20:47:09.739Z,25.71
2018-07-30T20:49:22.050Z,25.68
2018-07-30T20:51:34.239Z,25.67
2018-07-30T20:53:46.493Z,25.63
2018-07-30T20:55:58.720Z,25.49
2018-07-30T20:58:10.958Z,25.42
2018-07-30T21:00:23.168Z,25.36
2018-07-30T21:02:35.424Z,25.26
2018-07-30T21:04:47.670Z,25.12
2018-07-30T21:06:59.895Z,25.01
2018-07-30T21:09:12.107Z,24.94
2018-07-30T21:11:24.350Z,24.98
2018-07-30T21:13:36.555Z,25.01
2018-07-30T21:15:48.838Z,25.03
2018-07-30T21:18:01.117Z,25.06
2018-07-30T21:20:13.377Z,24.99
2018-07-30T21:22:25.584Z,24.98
2018-07-30T21:24:37.838Z,24.95
2018-07-30T21:26:50.044Z,24.91
2018-07-30T21:29:02.304Z,24.92
2018-07-30T21:31:14.533Z,24.84
2018-07-30T21:33:26.880Z,24.75
2018-07-30T21:35:39.086Z,24.69
2018-07-30T21:37:51.578Z,24.65
2018-07-30T21:40:04.255Z,24.65
2018-07-30T21:42:16.486Z,24.64
2018-07-30T21:44:28.704Z,24.55
2018-07-30T21:46:41.924Z,24.51
2018-07-30T21:48:54.171Z,24.49
2018-07-30T21:51:06.607Z,24.33
2018-07-30T21:53:18.848Z,24.22
2018-07-30T21:55:31.455Z,24.20
2018-07-30T21:57:43.669Z,24.11
2018-07-30T21:59:55.960Z,24.04
2018-07-30T22:02:08.162Z,24.00
2018-07-30T22:04:20.410Z,24.03
2018-07-30T22:06:32.679Z,24.03
2018-07-30T22:08:45.000Z,24.06
2018-07-30T22:10:57.234Z,24.04
2018-07-30T22:13:09.434Z,24.04
2018-07-30T22:15:22.126Z,24.04
2018-07-30T22:17:34.419Z,24.05
2018-07-30T22:19:46.619Z,24.06
2018-07-30T22:21:58.824Z,24.00
2018-07-30T22:24:11.075Z,23.99
2018-07-30T22:26:23.332Z,23.98
2018-07-30T22:28:35.527Z,23.98
2018-07-30T22:30:47.817Z,23.92
2018-07-30T22:33:00.030Z,23.81
2018-07-30T22:35:12.256Z,23.72
2018-07-30T22:37:24.473Z,23.75
2018-07-30T22:39:36.711Z,23.71
2018-07-30T22:41:48.983Z,23.68
2018-07-30T22:44:01.226Z,23.63
2018-07-30T22:46:13.434Z,23.62
2018-07-30T22:48:25.623Z,23.53
2018-07-30T22:50:37.889Z,23.44
2018-07-30T22:52:50.571Z,23.31
2018-07-30T22:55:02.867Z,23.28
2018-07-30T22:57:15.078Z,23.11
2018-07-30T22:59:27.327Z,23.02
2018-07-30T23:01:39.644Z,22.87
2018-07-30T23:03:51.924Z,22.81
2018-07-30T23:06:04.171Z,22.76
2018-07-30T23:08:16.359Z,22.81
2018-07-30T23:10:28.806Z,22.79
2018-07-30T23:12:41.143Z,22.76
2018-07-30T23:14:53.355Z,22.74
2018-07-30T23:17:05.527Z,22.69
2018-07-30T23:19:17.735Z,22.68
2018-07-30T23:21:30.104Z,22.65
2018-07-30T23:23:42.331Z,22.59
2018-07-30T23:25:54.544Z,22.62
2018-07-30T23:28:06.731Z,22.57
2018-07-30T23:30:18.954Z,22.53
2018-07-30T23:32:31.157Z,22.50
2018-07-30T23:34:43.369Z,22.47
2018-07-30T23:36:55.606Z,22.52
2018-07-30T23:39:09.574Z,22.47
2018-07-30T23:41:21.821Z,22.45
2018-07-30T23:43:34.003Z,22.41
2018-07-30T23:45:46.191Z,22.39
2018-07-30T23:47:58.394Z,22.41
2018-07-30T23:50:10.594Z,22.45
2018-07-30T23:52:22.895Z,22.42
2018-07-30T23:54:35.119Z,22.34
2018-07-30T23:56:47.391Z,22.29
2018-07-30T23:58:59.589Z,22.24
